^^
Your Local Weather - Clay, NY Station Historical Data
Daily Summary for February 20, 2017 Units:  Metric    English   Both
« Previous Day
Next Day »
Daily Weekly Monthly Yearly Custom
  High: Low: Average:
Temperature: 3.4 °C -5.7 °C -0.2 °C
Dew Point: -0.8 °C -9.2 °C -6.4 °C
Humidity: 84% 43% 65%
Wind Speed: 9.7km/h 0km/h 3.1km/h
Wind Gust: 12.9km/h - -
Wind- - WNW
Pressure: 1028.3 hPa 1017.2 hPa -
Precipitation: 0 mm    
Historical Graphs
 
 
Tabular Data for February 20, 2017
Time Temperature Dew Point Pressure Wind Wind Speed Wind Gust Humidity Rainfall Rate (Hourly) solar
00:00 2.6 °C -0.8 °C 1017.2 hPa Calm     78% 0 mm 0 W/m2
00:06 2.4 °C -1 °C 1017.2 hPa Calm   4.8 km/h 78% 0 mm 0 W/m2
00:12 2.3 °C -1.2 °C 1017.2 hPa Calm     78% 0 mm 0 W/m2
00:18 2.1 °C -1.2 °C 1017.5 hPa Calm     79% 0 mm 0 W/m2
00:24 1.9 °C -1.2 °C 1017.5 hPa Calm     80% 0 mm 0 W/m2
00:30 1.8 °C -1.3 °C 1017.8 hPa Calm     80% 0 mm 0 W/m2
00:36 1.6 °C -1.4 °C 1017.8 hPa Calm     80% 0 mm 0 W/m2
00:42 1.4 °C -1.5 °C 1017.8 hPa Calm     81% 0 mm 0 W/m2
00:48 1.2 °C -1.7 °C 1017.8 hPa Calm     81% 0 mm 0 W/m2
00:54 1.1 °C -1.6 °C 1017.8 hPa Calm     82% 0 mm 0 W/m2
01:00 0.9 °C -1.8 °C 1017.8 hPa Calm     82% 0 mm 0 W/m2
01:06 0.8 °C -1.8 °C 1017.8 hPa Calm     83% 0 mm 0 W/m2
01:12 0.8 °C -1.6 °C 1018.2 hPa Calm   1.6 km/h 84% 0 mm 0 W/m2
01:18 0.8 °C -1.6 °C 1018.2 hPa Calm   1.6 km/h 84% 0 mm 0 W/m2
01:24 0.8 °C -1.6 °C 1018.2 hPa Calm     84% 0 mm 0 W/m2
01:30 0.9 °C -1.4 °C 1018.2 hPa North 1.6 km/h 3.2 km/h 84% 0 mm 0 W/m2
01:36 1.1 °C -1.5 °C 1018.5 hPa NNW 1.6 km/h 3.2 km/h 83% 0 mm 0 W/m2
01:42 1.2 °C -1.6 °C 1018.5 hPa NNW 1.6 km/h 1.6 km/h 82% 0 mm 0 W/m2
01:48 1.2 °C -1.7 °C 1018.5 hPa NNW 1.6 km/h 3.2 km/h 81% 0 mm 0 W/m2
01:54 1.3 °C -1.8 °C 1018.8 hPa NNW 1.6 km/h 3.2 km/h 80% 0 mm 0 W/m2
02:00 1.3 °C -1.9 °C 1018.8 hPa NNW 1.6 km/h 1.6 km/h 79% 0 mm 0 W/m2
02:06 1.1 °C -2.1 °C 1018.8 hPa Calm   1.6 km/h 79% 0 mm 0 W/m2
02:12 0.9 °C -2.3 °C 1018.8 hPa Calm     79% 0 mm 0 W/m2
02:18 0.9 °C -2.3 °C 1018.8 hPa Calm     79% 0 mm 0 W/m2
02:24 0.8 °C -2.4 °C 1018.8 hPa Calm     79% 0 mm 0 W/m2
02:30 0.7 °C -2.6 °C 1018.8 hPa Calm     79% 0 mm 0 W/m2
02:36 0.6 °C -2.7 °C 1019.2 hPa Calm   3.2 km/h 79% 0 mm 0 W/m2
02:42 0.4 °C -2.8 °C 1019.2 hPa Calm     79% 0 mm 0 W/m2
02:48 0.3 °C -2.9 °C 1019.5 hPa Calm     79% 0 mm 0 W/m2
02:54 0.2 °C -2.8 °C 1019.5 hPa Calm     80% 0 mm 0 W/m2
03:00 0.1 °C -2.9 °C 1019.5 hPa Calm     80% 0 mm 0 W/m2
03:06 0.1 °C -3 °C 1019.5 hPa Calm   3.2 km/h 80% 0 mm 0 W/m2
03:12 0.1 °C -2.9 °C 1019.5 hPa Calm   8 km/h 80% 0 mm 0 W/m2
03:18 0.2 °C -3.1 °C 1019.5 hPa NNW 1.6 km/h 8 km/h 79% 0 mm 0 W/m2
03:24 0.2 °C -3.2 °C 1019.9 hPa NNW 3.2 km/h 4.8 km/h 78% 0 mm 0 W/m2
03:30 0.2 °C -3.3 °C 1019.9 hPa NW 3.2 km/h 3.2 km/h 77% 0 mm 0 W/m2
03:36 0.2 °C -3.6 °C 1019.9 hPa NNW 3.2 km/h 4.8 km/h 76% 0 mm 0 W/m2
03:42 0.2 °C -3.6 °C 1019.9 hPa NNW 1.6 km/h 1.6 km/h 76% 0 mm 0 W/m2
03:48 0.1 °C -3.7 °C 1020.2 hPa Calm   1.6 km/h 76% 0 mm 0 W/m2
03:54 0 °C -3.7 °C 1020.5 hPa WNW 1.6 km/h 1.6 km/h 76% 0 mm 0 W/m2
04:00 -0.1 °C -3.8 °C 1020.5 hPa Calm   1.6 km/h 76% 0 mm 0 W/m2
04:06 -0.1 °C -3.8 °C 1020.5 hPa Calm   3.2 km/h 76% 0 mm 0 W/m2
04:12 -0.2 °C -3.9 °C 1020.5 hPa Calm   1.6 km/h 76% 0 mm 0 W/m2
04:18 -0.2 °C -3.7 °C 1020.9 hPa Calm   1.6 km/h 77% 0 mm 0 W/m2
04:24 -0.2 °C -3.8 °C 1020.9 hPa Calm     77% 0 mm 0 W/m2
04:30 -0.2 °C -3.8 °C 1021.2 hPa Calm     77% 0 mm 0 W/m2
04:36 -0.2 °C -3.8 °C 1021.2 hPa Calm     77% 0 mm 0 W/m2
04:42 -0.2 °C -3.8 °C 1021.6 hPa WNW 1.6 km/h 4.8 km/h 77% 0 mm 0 W/m2
04:48 -0.3 °C -3.8 °C 1021.6 hPa NW 1.6 km/h 4.8 km/h 77% 0 mm 0 W/m2
04:54 -0.3 °C -3.9 °C 1021.6 hPa NW 1.6 km/h 3.2 km/h 77% 0 mm 0 W/m2
05:00 -0.4 °C -3.9 °C 1021.6 hPa NW 1.6 km/h 3.2 km/h 77% 0 mm 0 W/m2
05:06 -0.5 °C -4.2 °C 1021.9 hPa NW 1.6 km/h 4.8 km/h 76% 0 mm 0 W/m2
05:12 -0.6 °C -4.3 °C 1021.9 hPa NW 1.6 km/h 4.8 km/h 76% 0 mm 0 W/m2
05:18 -0.6 °C -4.3 °C 1022.2 hPa NNW 1.6 km/h 4.8 km/h 76% 0 mm 0 W/m2
05:24 -0.7 °C -4.4 °C 1022.2 hPa NNW 3.2 km/h 6.4 km/h 76% 0 mm 0 W/m2
05:30 -0.7 °C -4.4 °C 1022.2 hPa NW 3.2 km/h 4.8 km/h 76% 0 mm 0 W/m2
05:36 -0.8 °C -4.5 °C 1022.6 hPa WNW 3.2 km/h 8 km/h 76% 0 mm 0 W/m2
05:42 -0.7 °C -4.4 °C 1022.6 hPa North 4.8 km/h 6.4 km/h 76% 0 mm 0 W/m2
05:48 -0.8 °C -4.5 °C 1022.6 hPa NNW 4.8 km/h 6.4 km/h 76% 0 mm 0 W/m2
05:54 -0.9 °C -4.6 °C 1022.9 hPa NNW 3.2 km/h 4.8 km/h 76% 0 mm 0 W/m2
06:00 -1 °C -4.7 °C 1022.9 hPa NNW 3.2 km/h 3.2 km/h 76% 0 mm 0 W/m2
06:06 -1 °C -4.7 °C 1023.2 hPa NW 4.8 km/h 6.4 km/h 76% 0 mm 0 W/m2
06:12 -1.1 °C -4.9 °C 1023.2 hPa NNW 4.8 km/h 4.8 km/h 75% 0 mm 0 W/m2
06:18 -1.1 °C -4.8 °C 1023.2 hPa NNW 4.8 km/h 9.7 km/h 76% 0 mm 0 W/m2
06:24 -1.2 °C -4.9 °C 1023.2 hPa NNW 3.2 km/h 4.8 km/h 76% 0 mm 0 W/m2
06:30 -1.3 °C -5 °C 1023.2 hPa NNW 1.6 km/h 1.6 km/h 76% 0 mm 0 W/m2
06:36 -1.5 °C -5.2 °C 1023.6 hPa Calm   3.2 km/h 76% 0 mm 0 W/m2
06:42 -1.5 °C -5.2 °C 1023.6 hPa West 1.6 km/h 1.6 km/h 76% 0 mm 0 W/m2
06:48 -1.6 °C -5.2 °C 1023.6 hPa NW 1.6 km/h 4.8 km/h 76% 0 mm 0 W/m2
06:54 -1.6 °C -5.2 °C 1023.9 hPa NNW 3.2 km/h 6.4 km/h 76% 0 mm 5 W/m2
07:00 -1.5 °C -5.2 °C 1023.9 hPa NNW 6.4 km/h 9.7 km/h 76% 0 mm 7 W/m2
07:06 -1.4 °C -5.3 °C 1024.3 hPa NNW 6.4 km/h 9.7 km/h 75% 0 mm 11 W/m2
07:12 -1.6 °C -5.4 °C 1024.3 hPa NNW 4.8 km/h 6.4 km/h 75% 0 mm 12 W/m2
07:18 -1.6 °C -5.4 °C 1024.3 hPa NNW 3.2 km/h 6.4 km/h 75% 0 mm 14 W/m2
07:24 -1.7 °C -5.5 °C 1024.6 hPa NNW 3.2 km/h 8 km/h 75% 0 mm 18 W/m2
07:28 -1.6 °C -5.7 °C 1024.6 hPa NNW 4.8 km/h 8 km/h 74% 0 mm 19 W/m2
07:34 -1.6 °C -5.8 °C 1024.9 hPa NW 4.8 km/h 6.4 km/h 73% 0 mm 28 W/m2
07:40 -1.6 °C -6.2 °C 1024.9 hPa NNW 6.4 km/h 11.3 km/h 71% 0 mm 46 W/m2
07:46 -1.5 °C -6.3 °C 1024.9 hPa NNW 6.4 km/h 11.3 km/h 70% 0 mm 67 W/m2
07:52 -1.4 °C -6.2 °C 1025.3 hPa NNW 6.4 km/h 11.3 km/h 70% 0 mm 42 W/m2
07:58 -1.3 °C -6.1 °C 1025.3 hPa NNW 6.4 km/h 11.3 km/h 70% 0 mm 39 W/m2
08:04 -1.2 °C -5.8 °C 1025.3 hPa NW 4.8 km/h 6.4 km/h 71% 0 mm 137 W/m2
08:10 -1.1 °C -5.8 °C 1025.3 hPa NNW 3.2 km/h 8 km/h 70% 0 mm 178 W/m2
08:16 -0.9 °C -5.7 °C 1025.6 hPa NNW 4.8 km/h 8 km/h 70% 0 mm 155 W/m2
08:22 -0.8 °C -5.8 °C 1025.6 hPa NNW 6.4 km/h 6.4 km/h 69% 0 mm 146 W/m2
08:28 -0.7 °C -6.1 °C 1026 hPa North 6.4 km/h 8 km/h 67% 0 mm 142 W/m2
08:34 -0.3 °C -5.7 °C 1026 hPa NNW 6.4 km/h 11.3 km/h 67% 0 mm 155 W/m2
08:40 -0.1 °C -5.8 °C 1025.6 hPa NNW 4.8 km/h 11.3 km/h 65% 0 mm 199 W/m2
08:46 -0.3 °C -6.3 °C 1026 hPa NW 4.8 km/h 11.3 km/h 64% 0 mm 272 W/m2
08:52 -0.1 °C -6.5 °C 1026 hPa NNW 6.4 km/h 12.9 km/h 62% 0 mm 295 W/m2
08:58 0 °C -6.6 °C 1026 hPa NW 6.4 km/h 12.9 km/h 61% 0 mm 346 W/m2
09:04 0.1 °C -7 °C 1026 hPa NW 6.4 km/h 12.9 km/h 59% 0 mm 364 W/m2
09:10 0.3 °C -6.8 °C 1026 hPa NNE 6.4 km/h 8 km/h 59% 0 mm 381 W/m2
09:16 0.4 °C -6.9 °C 1026 hPa NNW 6.4 km/h 11.3 km/h 58% 0 mm 396 W/m2
09:22 0.6 °C -6.8 °C 1026 hPa NW 6.4 km/h 6.4 km/h 58% 0 mm 411 W/m2
09:28 0.7 °C -6.9 °C 1026.3 hPa NNW 6.4 km/h 9.7 km/h 57% 0 mm 429 W/m2
09:34 1 °C -6.6 °C 1026 hPa WNW 4.8 km/h 8 km/h 57% 0 mm 441 W/m2
09:40 0.9 °C -7.2 °C 1026.3 hPa North 4.8 km/h 8 km/h 55% 0 mm 457 W/m2
09:46 0.9 °C -7.1 °C 1026.3 hPa North 6.4 km/h 12.9 km/h 55% 0 mm 469 W/m2
09:52 0.9 °C -6.9 °C 1026.3 hPa North 6.4 km/h 11.3 km/h 56% 0 mm 482 W/m2
09:58 0.8 °C -7.2 °C 1026.3 hPa NW 6.4 km/h 11.3 km/h 55% 0 mm 497 W/m2
10:04 0.9 °C -7.1 °C 1026.3 hPa North 8 km/h 11.3 km/h 55% 0 mm 506 W/m2
10:10 1.2 °C -6.9 °C 1026.3 hPa North 8 km/h 8 km/h 55% 0 mm 519 W/m2
10:16 1.1 °C -6.9 °C 1026.3 hPa NW 8 km/h 8 km/h 55% 0 mm 529 W/m2
10:22 1.7 °C -6.4 °C 1026.3 hPa NNW 6.4 km/h 6.4 km/h 55% 0 mm 541 W/m2
10:24 1.8 °C -6.7 °C 1026.3 hPa NNW 4.8 km/h 6.4 km/h 53% 0 mm 547 W/m2
10:30 1.6 °C -7.5 °C 1026.3 hPa NW 4.8 km/h 4.8 km/h 51% 0 mm 557 W/m2
10:36 1.3 °C -7.2 °C 1026.3 hPa NNW 8 km/h 8 km/h 53% 0 mm 568 W/m2
10:42 1.8 °C -7.1 °C 1026.3 hPa NNW 6.4 km/h 12.9 km/h 52% 0 mm 577 W/m2
10:48 1.6 °C -7.3 °C 1026.3 hPa North 8 km/h 12.9 km/h 52% 0 mm 585 W/m2
10:56 1.6 °C -7.2 °C 1026.3 hPa North 8 km/h 8 km/h 52% 0 mm 596 W/m2
11:02 1.6 °C -7.2 °C 1026.3 hPa West 8 km/h 9.7 km/h 52% 0 mm 601 W/m2
11:08 1.2 °C -8.1 °C 1026.3 hPa North 9.7 km/h 12.9 km/h 50% 0 mm 612 W/m2
11:14 1.4 °C -7.7 °C 1026.3 hPa North 9.7 km/h 12.9 km/h 51% 0 mm 617 W/m2
11:20 1.6 °C -7.2 °C 1026.6 hPa NNW 8 km/h 8 km/h 52% 0 mm 622 W/m2
11:26 1.7 °C -6.9 °C 1026.6 hPa North 8 km/h 11.3 km/h 53% 0 mm 626 W/m2
11:32 2.4 °C -6.7 °C 1026.6 hPa NW 6.4 km/h 8 km/h 51% 0 mm 631 W/m2
11:38 2.1 °C -7.8 °C 1026.6 hPa NNW 6.4 km/h 8 km/h 48% 0 mm 636 W/m2
11:44 2.6 °C -7.9 °C 1026.6 hPa NNW 6.4 km/h 6.4 km/h 46% 0 mm 640 W/m2
11:50 2.1 °C -8.6 °C 1026.6 hPa NW 6.4 km/h 9.7 km/h 45% 0 mm 642 W/m2
11:56 2.2 °C -8.8 °C 1026.6 hPa NNW 8 km/h 9.7 km/h 44% 0 mm 645 W/m2
12:02 2.2 °C -8.8 °C 1026.6 hPa North 6.4 km/h 9.7 km/h 44% 0 mm 647 W/m2
12:08 2.2 °C -8.5 °C 1026.6 hPa NNW 6.4 km/h 9.7 km/h 45% 0 mm 647 W/m2
12:14 2.1 °C -8.9 °C 1026.6 hPa NW 8 km/h 8 km/h 44% 0 mm 649 W/m2
12:20 2.1 °C -8.9 °C 1026.6 hPa NNW 8 km/h 8 km/h 44% 0 mm 647 W/m2
12:26 2.1 °C -8.6 °C 1026.6 hPa North 8 km/h 9.7 km/h 45% 0 mm 647 W/m2
12:32 2.1 °C -9.2 °C 1026.6 hPa North 9.7 km/h 11.3 km/h 43% 0 mm 649 W/m2
12:38 2.6 °C -8.4 °C 1026.6 hPa NW 8 km/h 11.3 km/h 44% 0 mm 645 W/m2
12:44 2.9 °C -7.8 °C 1026.6 hPa NW 6.4 km/h 8 km/h 45% 0 mm 643 W/m2
12:50 3.4 °C -7.4 °C 1026.6 hPa North 3.2 km/h 3.2 km/h 45% 0 mm 642 W/m2
12:56 2.3 °C -8.7 °C 1026.3 hPa NW 6.4 km/h 11.3 km/h 44% 0 mm 636 W/m2
13:02 2.6 °C -8.5 °C 1026.3 hPa NNW 6.4 km/h 6.4 km/h 44% 0 mm 633 W/m2
13:08 2.6 °C -7.3 °C 1026.3 hPa NW 6.4 km/h 8 km/h 48% 0 mm 629 W/m2
13:14 3 °C -7.8 °C 1026.3 hPa NNW 4.8 km/h 8 km/h 45% 0 mm 628 W/m2
13:20 3.1 °C -7.1 °C 1026.3 hPa West 4.8 km/h 12.9 km/h 47% 0 mm 621 W/m2
13:26 2.8 °C -7.9 °C 1026.3 hPa NNW 4.8 km/h 12.9 km/h 45% 0 mm 615 W/m2
13:32 2.7 °C -8.1 °C 1026.3 hPa NW 4.8 km/h 8 km/h 45% 0 mm 606 W/m2
13:38 2.8 °C -7.2 °C 1026.3 hPa WNW 6.4 km/h 8 km/h 48% 0 mm 601 W/m2
13:44 2.8 °C -6.6 °C 1026.3 hPa NW 6.4 km/h 6.4 km/h 50% 0 mm 592 W/m2
13:50 2.7 °C -7.8 °C 1026.3 hPa West 6.4 km/h 9.7 km/h 46% 0 mm 584 W/m2
13:56 2.6 °C -7.4 °C 1026 hPa West 6.4 km/h 9.7 km/h 48% 0 mm 575 W/m2
14:02 2.8 °C -7.4 °C 1026 hPa WNW 6.4 km/h 6.4 km/h 47% 0 mm 568 W/m2
14:08 2.7 °C -7 °C 1026 hPa WNW 4.8 km/h 8 km/h 49% 0 mm 557 W/m2
14:14 2.8 °C -7.7 °C 1026 hPa NNW 4.8 km/h 11.3 km/h 46% 0 mm 547 W/m2
14:20 2.2 °C -8.3 °C 1026 hPa North 6.4 km/h 9.7 km/h 46% 0 mm 534 W/m2
14:26 2.2 °C -8 °C 1026 hPa NW 9.7 km/h 11.3 km/h 47% 0 mm 526 W/m2
14:32 2.1 °C -8.1 °C 1026.3 hPa North 9.7 km/h 11.3 km/h 47% 0 mm 512 W/m2
14:38 2.2 °C -8.3 °C 1026.6 hPa NNW 8 km/h 11.3 km/h 46% 0 mm 499 W/m2
14:44 1.9 °C -7.9 °C 1026.6 hPa North 8 km/h 11.3 km/h 48% 0 mm 489 W/m2
14:50 2.5 °C -7.9 °C 1026.6 hPa NNW 8 km/h 8 km/h 46% 0 mm 476 W/m2
14:56 2.6 °C -7.9 °C 1026.6 hPa NNW 4.8 km/h 8 km/h 46% 0 mm 464 W/m2
15:02 2.4 °C -7.8 °C 1026.6 hPa NNW 6.4 km/h 6.4 km/h 47% 0 mm 446 W/m2
15:08 2.3 °C -8.4 °C 1026.6 hPa NW 6.4 km/h 6.4 km/h 45% 0 mm 436 W/m2
15:14 2.7 °C -7.6 °C 1026.6 hPa NW 6.4 km/h 9.7 km/h 47% 0 mm 422 W/m2
15:20 2.8 °C -7.4 °C 1027 hPa NW 4.8 km/h 4.8 km/h 47% 0 mm 408 W/m2
15:26 2.5 °C -7.9 °C 1026.6 hPa NW 6.4 km/h 6.4 km/h 46% 0 mm 392 W/m2
15:32 2.8 °C -7.2 °C 1026.6 hPa WNW 4.8 km/h 6.4 km/h 48% 0 mm 378 W/m2
15:38 2.6 °C -7.9 °C 1027 hPa NW 4.8 km/h 9.7 km/h 46% 0 mm 362 W/m2
15:46 2.4 °C -7.5 °C 1027 hPa NW 4.8 km/h 6.4 km/h 48% 0 mm 341 W/m2
15:52 2.6 °C -8.2 °C 1027 hPa WNW 4.8 km/h 4.8 km/h 45% 0 mm 323 W/m2
15:58 2.4 °C -7.4 °C 1027 hPa West 3.2 km/h 6.4 km/h 48% 0 mm 309 W/m2
16:04 2.4 °C -8.1 °C 1027 hPa WNW 4.8 km/h 9.7 km/h 46% 0 mm 290 W/m2
16:10 2.4 °C -7.7 °C 1027 hPa WNW 4.8 km/h 4.8 km/h 47% 0 mm 272 W/m2
16:16 2.2 °C -8.6 °C 1027 hPa West 4.8 km/h 9.7 km/h 45% 0 mm 257 W/m2
16:22 2 °C -8.2 °C 1027.3 hPa NW 4.8 km/h 8 km/h 47% 0 mm 241 W/m2
16:28 1.8 °C -8.3 °C 1027.3 hPa WNW 4.8 km/h 8 km/h 47% 0 mm 28 W/m2
16:34 1.6 °C -8.6 °C 1027.3 hPa WNW 4.8 km/h 4.8 km/h 47% 0 mm 26 W/m2
16:40 1.4 °C -8.2 °C 1027.3 hPa WNW 4.8 km/h 4.8 km/h 49% 0 mm 33 W/m2
16:46 1.3 °C -8.2 °C 1027.3 hPa WNW 4.8 km/h 4.8 km/h 49% 0 mm 39 W/m2
16:52 1.3 °C -8.6 °C 1027.3 hPa WNW 4.8 km/h 6.4 km/h 48% 0 mm 33 W/m2
16:58 1.1 °C -8.5 °C 1027.3 hPa NW 4.8 km/h 6.4 km/h 49% 0 mm 30 W/m2
17:04 1 °C -8.3 °C 1027.3 hPa WNW 3.2 km/h 4.8 km/h 50% 0 mm 25 W/m2
17:10 0.9 °C -8.6 °C 1027.7 hPa NW 1.6 km/h 1.6 km/h 49% 0 mm 19 W/m2
17:16 0.8 °C -8.5 °C 1027.7 hPa WNW 1.6 km/h 6.4 km/h 50% 0 mm 16 W/m2
17:22 0.7 °C -8.3 °C 1027.7 hPa WNW 1.6 km/h 3.2 km/h 51% 0 mm 14 W/m2
17:28 0.4 °C -8.3 °C 1028 hPa NW 1.6 km/h 3.2 km/h 52% 0 mm 11 W/m2
17:34 0.3 °C -8.4 °C 1028 hPa NW 1.6 km/h 3.2 km/h 52% 0 mm 7 W/m2
17:40 0.2 °C -8.6 °C 1028 hPa NW 1.6 km/h 1.6 km/h 52% 0 mm 5 W/m2
17:46 -0.1 °C -8.5 °C 1028 hPa Calm   3.2 km/h 53% 0 mm 0 W/m2
17:52 -0.2 °C -8.7 °C 1028 hPa Calm     53% 0 mm 0 W/m2
17:58 -0.4 °C -8.8 °C 1028 hPa Calm     53% 0 mm 0 W/m2
18:04 -0.5 °C -8.9 °C 1028 hPa NW 1.6 km/h 3.2 km/h 53% 0 mm 0 W/m2
18:10 -0.7 °C -8.8 °C 1028 hPa NW 1.6 km/h 1.6 km/h 54% 0 mm 0 W/m2
18:16 -0.8 °C -9 °C 1028 hPa Calm   1.6 km/h 54% 0 mm 0 W/m2
18:22 -1 °C -8.9 °C 1028 hPa Calm     55% 0 mm 0 W/m2
18:28 -1.1 °C -9 °C 1028 hPa Calm     55% 0 mm 0 W/m2
18:34 -1.3 °C -8.9 °C 1028 hPa Calm     56% 0 mm 0 W/m2
18:40 -1.4 °C -7.9 °C 1028 hPa Calm     61% 0 mm 0 W/m2
18:46 -1.6 °C -7.7 °C 1028 hPa Calm     63% 0 mm 0 W/m2
18:52 -1.8 °C -8.3 °C 1028 hPa Calm     61% 0 mm 0 W/m2
18:58 -2 °C -8.5 °C 1028.3 hPa Calm     61% 0 mm 0 W/m2
19:06 -2.2 °C -8.6 °C 1028.3 hPa Calm     62% 0 mm 0 W/m2
19:12 -2.4 °C -8.6 °C 1028.3 hPa Calm     63% 0 mm 0 W/m2
19:18 -2.6 °C -8.2 °C 1028 hPa Calm     65% 0 mm 0 W/m2
19:26 -2.7 °C -8.2 °C 1027.7 hPa Calm     66% 0 mm 0 W/m2
19:32 -2.8 °C -8.5 °C 1027.7 hPa Calm     65% 0 mm 0 W/m2
19:38 -3.1 °C -8.1 °C 1027.7 hPa Calm     68% 0 mm 0 W/m2
19:48 -3.1 °C -8.1 °C 1028 hPa Calm     68% 0 mm 0 W/m2
19:56 -3.1 °C -8.2 °C 1027.7 hPa Calm     68% 0 mm 0 W/m2
20:04 -3.3 °C -8.2 °C 1027.7 hPa Calm     69% 0 mm 0 W/m2
20:10 -3.5 °C -7.8 °C 1027.7 hPa Calm     72% 0 mm 0 W/m2
20:16 -3.6 °C -8.1 °C 1027.7 hPa Calm     71% 0 mm 0 W/m2
20:22 -3.7 °C -8.1 °C 1027.7 hPa Calm     72% 0 mm 0 W/m2
20:28 -3.9 °C -8.4 °C 1027.7 hPa Calm     71% 0 mm 0 W/m2
20:36 -3.9 °C -8.3 °C 1027.7 hPa Calm     72% 0 mm 0 W/m2
20:42 -4 °C -8.1 °C 1027.7 hPa Calm     73% 0 mm 0 W/m2
20:48 -4.1 °C -8.2 °C 1027.7 hPa Calm     73% 0 mm 0 W/m2
20:56 -4.2 °C -8.3 °C 1028 hPa Calm     73% 0 mm 0 W/m2
21:04 -4.2 °C -8.3 °C 1028 hPa Calm     73% 0 mm 0 W/m2
21:10 -4.2 °C -8.3 °C 1027.7 hPa Calm     73% 0 mm 0 W/m2
21:16 -4.3 °C -8.3 °C 1028 hPa Calm     74% 0 mm 0 W/m2
21:22 -4.4 °C -8.4 °C 1028 hPa Calm     74% 0 mm 0 W/m2
21:28 -4.5 °C -8.3 °C 1027.7 hPa Calm     75% 0 mm 0 W/m2
21:36 -4.6 °C -8.3 °C 1028 hPa Calm     75% 0 mm 0 W/m2
21:42 -4.6 °C -8.4 °C 1028 hPa Calm     75% 0 mm 0 W/m2
21:48 -4.7 °C -8.5 °C 1028 hPa Calm     75% 0 mm 0 W/m2
21:56 -4.8 °C -8.6 °C 1027.7 hPa Calm     75% 0 mm 0 W/m2
22:04 -4.9 °C -8.4 °C 1027.7 hPa Calm     76% 0 mm 0 W/m2
22:10 -4.9 °C -8.5 °C 1027.7 hPa Calm     76% 0 mm 0 W/m2
22:16 -5 °C -8.6 °C 1028 hPa Calm     76% 0 mm 0 W/m2
22:22 -5.1 °C -8.7 °C 1028 hPa Calm     76% 0 mm 0 W/m2
22:28 -5.1 °C -8.5 °C 1028 hPa Calm     77% 0 mm 0 W/m2
22:37 -5.1 °C -8.3 °C 1028 hPa Calm     78% 0 mm 0 W/m2
22:44 -5.2 °C -8.3 °C 1028 hPa Calm     79% 0 mm 0 W/m2
22:50 -5.3 °C -8.4 °C 1028 hPa Calm     79% 0 mm 0 W/m2
22:56 -5.3 °C -8.3 °C 1028 hPa Calm     79% 0 mm 0 W/m2
23:06 -5.3 °C -8.4 °C 1027.7 hPa Calm     79% 0 mm 0 W/m2
23:12 -5.4 °C -8.5 °C 1027.7 hPa Calm     79% 0 mm 0 W/m2
23:18 -5.4 °C -8.3 °C 1027.3 hPa Calm     80% 0 mm 0 W/m2
23:26 -5.5 °C -8.2 °C 1027.3 hPa Calm     81% 0 mm 0 W/m2
23:32 -5.7 °C -8.6 °C 1027.3 hPa Calm     80% 0 mm 0 W/m2
23:38 -5.7 °C -8.6 °C 1027 hPa Calm   3.2 km/h 80% 0 mm 0 W/m2
23:46 -5.7 °C -8.6 °C 1027 hPa Calm     80% 0 mm 0 W/m2
23:52 -5.7 °C -8.8 °C 1027.3 hPa Calm     79% 0 mm 0 W/m2
23:58 -5.7 °C -8.6 °C 1027 hPa Calm     80% 0 mm 0 W/m2
Country Meadow, Clay, NY, USA
Compliments of Weather Underground - 2 mb